Time;durP1;ratioP1;P1;durP2;ratioP2;P2;SDS_P1;SDS_P2;PMS_P1;PMS_P2;Temp;Humidity;BMP_temperature;BMP_pressure;BME280_temperature;BME280_humidity;BME280_pressure;Samples;Min_cycle;Max_cycle;Signal;HPM_P1;HPM_P2
2023/01/18 00:00:38;;;;;;;23.98;8.95;;;;;;;-3.14;100.00;98971.47;5097256;28;20024;-82
2023/01/18 00:03:04;;;;;;;21.63;8.80;;;;;;;-3.17;100.00;98976.13;5096855;28;20077;-83
2023/01/18 00:05:29;;;;;;;22.65;9.40;;;;;;;-3.14;100.00;98979.41;5096655;28;20273;-82
2023/01/18 00:07:57;;;;;;;18.73;8.15;;;;;;;-3.12;100.00;98978.25;5115128;28;20456;-83
2023/01/18 00:10:26;;;;;;;21.13;8.55;;;;;;;-3.10;100.00;98978.94;5063899;28;20035;-83
2023/01/18 00:12:51;;;;;;;19.67;7.77;;;;;;;-3.09;100.00;98982.41;5097211;28;20039;-83
2023/01/18 00:15:17;;;;;;;20.25;7.95;;;;;;;-3.12;100.00;98970.28;5096990;28;20084;-83
2023/01/18 00:17:50;;;;;;;16.83;7.70;;;;;;;-3.14;100.00;98972.31;5096351;28;20031;-83
2023/01/18 00:20:17;;;;;;;15.48;6.78;;;;;;;-3.11;100.00;98974.63;5115290;28;20448;-83
2023/01/18 00:22:42;;;;;;;16.77;7.70;;;;;;;-3.06;100.00;98979.41;5096562;28;20024;-83
2023/01/18 00:25:09;;;;;;;12.57;6.50;;;;;;;-3.05;100.00;98981.88;5079551;28;20307;-83
2023/01/18 00:27:39;;;;;;;18.33;6.93;;;;;;;-3.02;100.00;98986.00;5096670;28;20045;-82
2023/01/18 00:30:07;;;;;;;18.80;7.23;;;;;;;-2.98;100.00;98989.13;5114536;28;20024;-82
2023/01/18 00:32:33;;;;;;;20.48;6.97;;;;;;;-2.97;100.00;98981.00;5096785;28;20352;-82
2023/01/18 00:35:03;;;;;;;17.88;7.68;;;;;;;-2.95;100.00;98983.47;5079168;28;20027;-82
2023/01/18 00:37:31;;;;;;;14.98;6.65;;;;;;;-2.98;100.00;98989.97;5114867;28;20027;-83
2023/01/18 00:40:00;;;;;;;16.00;7.15;;;;;;;-2.96;100.00;98995.13;5096329;28;20486;-82
2023/01/18 00:45:09;;;;;;;18.88;6.88;;;;;;;-3.03;100.00;98990.50;5099767;28;20042;-82
2023/01/18 00:47:35;;;;;;;17.38;6.70;;;;;;;-3.03;100.00;98995.81;5079093;28;20471;-82
2023/01/18 00:50:00;;;;;;;14.03;6.40;;;;;;;-3.06;100.00;98992.66;5096505;28;20127;-82
2023/01/18 00:52:26;;;;;;;13.23;6.57;;;;;;;-3.05;100.00;98991.66;5078830;28;20048;-83
2023/01/18 00:54:52;;;;;;;15.32;7.20;;;;;;;-3.05;100.00;99003.09;5097268;28;20024;-82
2023/01/18 00:57:17;;;;;;;15.97;7.10;;;;;;;-3.07;100.00;99002.47;5096162;28;20392;-82
2023/01/18 00:59:45;;;;;;;14.65;6.28;;;;;;;-3.07;100.00;98998.97;5095760;28;20039;-82
2023/01/18 01:02:11;;;;;;;16.83;6.60;;;;;;;-3.06;100.00;99004.09;5079190;28;20558;-82
2023/01/18 01:07:20;;;;;;;18.05;7.35;;;;;;;-3.04;100.00;98993.31;5114887;28;20087;-82
2023/01/18 01:09:46;;;;;;;18.43;6.50;;;;;;;-3.04;100.00;99002.13;5095576;28;20032;-82
2023/01/18 01:26:11;;;;;;;17.20;6.50;;;;;;;-3.24;100.00;99016.78;5114659;28;20043;-82
2023/01/18 01:28:42;;;;;;;14.85;6.22;;;;;;;-3.31;100.00;99019.28;5096055;28;20667;-82
2023/01/18 01:31:11;;;;;;;22.33;6.95;;;;;;;-3.33;100.00;99020.47;5095725;28;20452;-82
2023/01/18 01:33:37;;;;;;;19.75;7.15;;;;;;;-3.38;100.00;99019.16;5114294;28;20122;-83
2023/01/18 01:36:06;;;;;;;16.27;6.63;;;;;;;-3.40;100.00;99029.06;5096787;28;20067;-83
2023/01/18 01:38:35;;;;;;;17.63;6.35;;;;;;;-3.45;100.00;99028.78;5095396;28;20046;-82
2023/01/18 01:41:04;;;;;;;18.23;7.55;;;;;;;-3.48;100.00;99031.78;5095616;28;20505;-82
2023/01/18 01:43:39;;;;;;;16.83;6.45;;;;;;;-3.50;100.00;99035.56;5095525;28;20105;-82
2023/01/18 01:46:35;;;;;;;14.35;6.43;;;;;;;-3.56;100.00;99037.91;5114073;28;20085;-82
2023/01/18 01:49:07;;;;;;;15.87;6.77;;;;;;;-3.59;100.00;99038.25;5097574;28;20035;-82
2023/01/18 01:51:36;;;;;;;16.70;6.43;;;;;;;-3.60;100.00;99041.91;5117556;28;20262;-82
2023/01/18 01:54:10;;;;;;;16.27;7.00;;;;;;;-3.60;100.00;99047.19;5099187;28;20075;-82
2023/01/18 01:56:38;;;;;;;16.98;7.15;;;;;;;-3.60;100.00;99046.34;5118042;28;20097;-82
2023/01/18 01:59:05;;;;;;;17.08;7.15;;;;;;;-3.58;100.00;99047.03;5082756;28;20055;-82
2023/01/18 02:01:31;;;;;;;15.57;6.93;;;;;;;-3.63;100.00;99047.53;5099504;28;20027;-82
2023/01/18 02:04:01;;;;;;;19.60;6.72;;;;;;;-3.66;100.00;99049.69;5098765;28;20273;-82
2023/01/18 02:06:32;;;;;;;13.93;6.70;;;;;;;-3.66;100.00;99053.19;5099220;28;20028;-82
2023/01/18 02:09:02;;;;;;;12.90;6.40;;;;;;;-3.74;100.00;99040.75;5100180;28;20460;-92
2023/01/18 02:11:28;;;;;;;17.42;7.03;;;;;;;-3.71;100.00;99044.88;5099923;28;20038;-91
2023/01/18 02:13:56;;;;;;;13.73;6.83;;;;;;;-3.81;100.00;99042.44;5099607;28;20060;-91
2023/01/18 02:16:52;;;;;;;13.10;6.68;;;;;;;-3.74;100.00;99045.22;5099488;28;20127;-91
2023/01/18 02:19:57;;;;;;;19.73;7.65;;;;;;;-3.75;100.00;99044.41;5099649;28;20495;-90
2023/01/18 02:22:52;;;;;;;13.88;6.63;;;;;;;-3.74;100.00;99053.19;5100208;28;20114;-92
2023/01/18 02:25:40;;;;;;;16.27;7.77;;;;;;;-3.75;100.00;99041.75;5099822;28;20024;-91
2023/01/18 02:28:20;;;;;;;21.70;7.45;;;;;;;-3.72;100.00;99043.22;5099709;28;20027;-91
2023/01/18 02:31:06;;;;;;;20.55;7.95;;;;;;;-3.75;100.00;99019.69;5118069;28;20057;-90
2023/01/18 02:33:58;;;;;;;19.60;8.18;;;;;;;-3.72;100.00;99036.13;5100098;28;20031;-91
2023/01/18 02:36:57;;;;;;;14.90;7.18;;;;;;;-3.64;100.00;99042.41;5100068;28;20024;-91
2023/01/18 02:39:55;;;;;;;16.47;6.80;;;;;;;-3.61;100.00;99052.66;5102481;28;20463;-90
2023/01/18 02:48:26;;;;;;;19.08;7.85;;;;;;;-3.73;100.00;99050.34;5117476;28;20046;-91
2023/01/18 02:50:54;;;;;;;20.92;7.72;;;;;;;-3.75;100.00;99054.16;5099265;28;20058;-91
2023/01/18 02:53:20;;;;;;;17.40;7.37;;;;;;;-3.80;100.00;99053.84;5098732;28;20062;-91
2023/01/18 02:56:02;;;;;;;18.55;6.95;;;;;;;-3.83;100.00;99068.25;5099131;28;20023;-91
2023/01/18 02:58:38;;;;;;;18.60;7.27;;;;;;;-3.85;100.00;99069.41;5117729;28;20027;-91
2023/01/18 03:01:32;;;;;;;12.35;6.65;;;;;;;-3.90;100.00;99073.41;5098250;28;20277;-91
2023/01/18 03:04:07;;;;;;;16.58;6.93;;;;;;;-4.01;100.00;99059.66;5118995;28;20016;-92
2023/01/18 03:06:39;;;;;;;16.35;6.93;;;;;;;-3.97;100.00;99071.56;5104444;28;20518;-90
2023/01/18 03:09:07;;;;;;;14.70;7.45;;;;;;;-4.09;100.00;99056.00;5130866;28;20027;-91
2023/01/18 03:12:06;;;;;;;;;;;;;;;;;;;;;
2023/01/18 03:14:48;;;;;;;15.93;7.57;;;;;;;-4.06;100.00;99062.78;5122332;28;20801;-91
2023/01/18 03:17:32;;;;;;;20.10;7.50;;;;;;;-4.09;100.00;99065.75;5098709;28;20078;-91
2023/01/18 03:20:07;;;;;;;16.40;7.10;;;;;;;-4.10;100.00;99064.94;5116569;28;20033;-91
2023/01/18 03:25:40;;;;;;;19.87;6.73;;;;;;;-4.22;100.00;99058.31;5116589;28;20399;-91
2023/01/18 03:33:54;;;;;;;16.42;7.80;;;;;;;-4.25;100.00;99054.16;5124755;28;20479;-91
2023/01/18 03:36:46;;;;;;;19.20;7.05;;;;;;;-4.25;100.00;99067.41;5102441;28;20028;-91
2023/01/18 03:39:43;;;;;;;17.97;7.87;;;;;;;-4.15;100.00;99074.38;5090744;28;20035;-91
2023/01/18 03:42:25;;;;;;;17.35;7.63;;;;;;;-4.12;100.00;99072.22;5104701;28;20836;-91
2023/01/18 03:44:58;;;;;;;18.73;8.45;;;;;;;-4.15;100.00;99064.63;5122141;28;20034;-91
2023/01/18 03:47:29;;;;;;;13.40;7.07;;;;;;;-4.17;100.00;99065.75;5098901;28;20027;-91
2023/01/18 03:50:05;;;;;;;;;;;;;;;;;;;;;
2023/01/18 03:52:42;;;;;;;17.83;7.90;;;;;;;-4.22;100.00;99076.84;5121656;28;20123;-91
2023/01/18 03:55:29;;;;;;;19.65;7.72;;;;;;;-4.26;100.00;99083.47;5108757;28;20828;-91
2023/01/18 03:58:06;;;;;;;15.93;8.10;;;;;;;-4.27;100.00;99095.84;5103523;28;20527;-90
2023/01/18 04:00:49;;;;;;;;;;;;;;;;;;;;;
2023/01/18 04:03:22;;;;;;;20.65;8.10;;;;;;;-4.40;100.00;99098.16;5100895;28;20042;-91
2023/01/18 04:05:58;;;;;;;;;;;;;;;;;;;;;
2023/01/18 04:08:24;;;;;;;21.25;8.30;;;;;;;-4.37;100.00;99118.19;5116310;28;20260;-91
2023/01/18 04:10:50;;;;;;;19.60;8.23;;;;;;;-4.41;100.00;99115.84;5115127;28;20458;-91
2023/01/18 04:13:23;;;;;;;22.00;8.90;;;;;;;-4.44;100.00;99112.72;5081659;28;20093;-91
2023/01/18 04:15:54;;;;;;;19.95;8.40;;;;;;;-4.38;100.00;99119.16;5099619;28;20031;-91
2023/01/18 04:18:21;;;;;;;19.60;9.20;;;;;;;-4.42;100.00;99113.38;5081615;28;20074;-91
2023/01/18 04:20:55;;;;;;;18.70;8.50;;;;;;;-4.34;100.00;99124.00;5099719;28;20024;-92
2023/01/18 04:23:20;;;;;;;22.08;8.85;;;;;;;-4.28;100.00;99122.50;5127693;28;20019;-92
2023/01/18 04:25:49;;;;;;;19.88;8.07;;;;;;;-4.28;100.00;99117.22;5097740;28;20028;-91
2023/01/18 04:28:26;;;;;;;20.38;8.45;;;;;;;-4.28;100.00;99133.09;5097469;28;20055;-91
2023/01/18 04:30:53;;;;;;;19.33;8.70;;;;;;;-4.36;100.00;99115.38;5097217;28;20035;-92
2023/01/18 04:33:25;;;;;;;16.92;8.10;;;;;;;-4.40;100.00;99119.31;5115567;28;20065;-91
2023/01/18 04:36:03;;;;;;;;;;;;;;;;;;;;;
2023/01/18 04:38:31;;;;;;;17.73;9.00;;;;;;;-4.43;100.00;99117.84;5116003;28;20024;-91
2023/01/18 04:41:05;;;;;;;17.15;8.13;;;;;;;-4.41;100.00;99129.09;5096839;28;20073;-91
2023/01/18 04:43:35;;;;;;;21.50;8.67;;;;;;;-4.35;100.00;99130.28;5096840;28;20028;-91
2023/01/18 04:46:04;;;;;;;25.30;9.05;;;;;;;-4.37;100.00;99129.63;5096964;28;20019;-91
2023/01/18 04:48:34;;;;;;;19.33;8.90;;;;;;;-4.38;100.00;99132.41;5096648;28;20035;-91
2023/01/18 04:51:02;;;;;;;23.42;8.70;;;;;;;-4.37;100.00;99136.72;5081138;28;20039;-90
2023/01/18 04:53:36;;;;;;;21.42;9.43;;;;;;;-4.43;100.00;99133.75;5097536;28;20047;-91
2023/01/18 04:56:04;;;;;;;20.10;9.27;;;;;;;-4.48;100.00;99128.09;5100653;28;20055;-92
2023/01/18 04:58:29;;;;;;;21.48;8.98;;;;;;;-4.41;100.00;99145.00;5107799;28;20091;-91
2023/01/18 05:01:02;;;;;;;22.10;9.70;;;;;;;-4.45;100.00;99140.19;5115490;28;20027;-91
2023/01/18 05:03:30;;;;;;;23.73;9.37;;;;;;;-4.43;100.00;99135.53;5105434;28;20028;-91
2023/01/18 05:05:56;;;;;;;20.38;9.30;;;;;;;-4.42;100.00;99147.78;5097445;28;20051;-91
2023/01/18 05:08:22;;;;;;;23.05;9.98;;;;;;;-4.47;100.00;99144.81;5102631;28;20089;-92
2023/01/18 05:10:50;;;;;;;18.75;9.48;;;;;;;-4.48;100.00;99151.91;5102841;28;20031;-92
2023/01/18 05:13:17;;;;;;;21.00;8.90;;;;;;;-4.50;100.00;99158.34;5122898;28;20057;-91
2023/01/18 05:15:46;;;;;;;17.63;9.65;;;;;;;-4.41;100.00;99168.81;5098067;28;20083;-91
2023/01/18 05:18:12;;;;;;;22.40;10.15;;;;;;;-4.43;100.00;99160.22;5096071;28;20032;-91
2023/01/18 05:20:37;;;;;;;23.40;10.23;;;;;;;-4.39;100.00;99167.84;5096218;28;20053;-91
2023/01/18 05:23:09;;;;;;;23.80;9.82;;;;;;;-4.44;100.00;99161.19;5097176;28;20038;-91
2023/01/18 05:25:42;;;;;;;22.63;9.90;;;;;;;-4.45;100.00;99159.53;5101617;28;20032;-91
2023/01/18 05:28:09;;;;;;;22.20;10.18;;;;;;;-4.43;100.00;99168.16;5083855;28;20036;-91
2023/01/18 05:30:41;;;;;;;20.67;9.70;;;;;;;-4.41;100.00;99174.13;5100397;28;20020;-91
2023/01/18 05:33:11;;;;;;;23.45;8.73;;;;;;;-4.44;100.00;99174.44;5100562;28;20028;-91
2023/01/18 05:35:45;;;;;;;18.75;9.43;;;;;;;-4.39;100.00;99173.94;5100930;28;20027;-92
2023/01/18 05:38:11;;;;;;;27.47;9.50;;;;;;;-4.32;100.00;99184.75;5101349;28;20118;-91
2023/01/18 05:40:42;;;;;;;24.35;10.85;;;;;;;-4.29;100.00;99185.25;5100633;28;20027;-92
2023/01/18 05:43:07;;;;;;;22.08;10.00;;;;;;;-4.32;100.00;99182.09;5101869;28;20364;-92
2023/01/18 05:45:33;;;;;;;21.67;9.47;;;;;;;-4.32;100.00;99182.91;5100553;28;20028;-92
2023/01/18 05:48:02;;;;;;;22.03;10.20;;;;;;;-4.34;100.00;99184.06;5100936;28;20027;-91
2023/01/18 05:50:35;;;;;;;26.67;10.65;;;;;;;-4.30;100.00;99191.50;5100392;28;20282;-91
2023/01/18 05:53:03;;;;;;;21.42;10.63;;;;;;;-4.31;100.00;99204.91;5100005;28;20059;-90
2023/01/18 05:55:28;;;;;;;25.58;11.23;;;;;;;-4.39;100.00;99196.97;5100205;28;20043;-92
2023/01/18 05:58:01;;;;;;;24.23;10.77;;;;;;;-4.37;100.00;99213.50;5100402;28;20032;-91
2023/01/18 06:00:33;;;;;;;26.15;10.73;;;;;;;-4.40;100.00;99201.41;5083562;28;20031;-91
2023/01/18 06:03:07;;;;;;;23.63;11.00;;;;;;;-4.41;100.00;99197.13;5099794;28;20086;-92
2023/01/18 06:05:44;;;;;;;;;;;;;;;;;;;;;
2023/01/18 06:08:11;;;;;;;28.83;11.37;;;;;;;-4.43;100.00;99194.63;5093594;28;20026;-92
2023/01/18 06:10:40;;;;;;;26.10;11.55;;;;;;;-4.39;100.00;99204.91;5118338;28;20262;-93
2023/01/18 06:13:09;;;;;;;19.85;8.88;;;;;;;-4.40;100.00;99206.69;5100394;28;20111;-95
2023/01/18 06:15:36;;;;;;;22.65;11.00;;;;;;;-4.38;100.00;99212.69;5118301;28;20035;-90
2023/01/18 06:18:02;;;;;;;29.02;12.88;;;;;;;-4.34;100.00;99224.63;5100068;28;20040;-94
2023/01/18 06:20:29;;;;;;;27.93;10.80;;;;;;;-4.36;100.00;99225.78;5118004;28;20100;-91
2023/01/18 06:22:57;;;;;;;22.95;11.52;;;;;;;-4.42;100.00;99214.81;5099919;28;20019;-93
2023/01/18 06:25:25;;;;;;;30.50;11.95;;;;;;;-4.40;100.00;99227.88;5100018;28;20031;-93
2023/01/18 06:27:55;;;;;;;23.00;8.63;;;;;;;-4.35;100.00;99228.25;5100112;28;20035;-93
2023/01/18 06:30:21;;;;;;;27.20;11.67;;;;;;;-4.31;100.00;99239.34;5100169;28;20062;-90
2023/01/18 06:32:49;;;;;;;25.83;11.68;;;;;;;-4.31;100.00;99242.00;5099536;28;20304;-91
2023/01/18 06:35:20;;;;;;;24.08;11.57;;;;;;;-4.33;100.00;99251.94;5099873;28;20036;-91
2023/01/18 06:37:46;;;;;;;25.90;10.93;;;;;;;-4.38;100.00;99241.81;5118315;28;20444;-91
2023/01/18 06:40:16;;;;;;;24.50;10.70;;;;;;;-4.34;100.00;99255.56;5099271;28;20039;-91
2023/01/18 06:42:42;;;;;;;26.02;11.23;;;;;;;-4.35;100.00;99244.16;5118379;28;20028;-92
2023/01/18 06:45:08;;;;;;;22.60;11.57;;;;;;;-4.35;100.00;99251.28;5099035;28;20043;-91
2023/01/18 06:47:33;;;;;;;29.85;11.30;;;;;;;-4.43;100.00;99247.59;5101764;28;20085;-92
2023/01/18 06:49:59;;;;;;;25.47;11.13;;;;;;;-4.45;100.00;99246.91;5085051;28;20028;-92
2023/01/18 06:52:24;;;;;;;20.63;9.63;;;;;;;-4.45;100.00;99257.50;5124386;28;20032;-92
2023/01/18 06:54:50;;;;;;;23.80;11.75;;;;;;;-4.45;100.00;99261.97;5118149;28;20051;-92
2023/01/18 06:57:21;;;;;;;26.77;12.00;;;;;;;-4.34;100.00;99276.75;5099727;28;20463;-92
2023/01/18 06:59:46;;;;;;;28.37;10.60;;;;;;;-4.34;100.00;99279.38;5083325;28;20421;-93
2023/01/18 07:02:15;;;;;;;25.70;10.63;;;;;;;-4.35;100.00;99275.91;5117804;28;20342;-91
2023/01/18 07:04:44;;;;;;;20.40;10.47;;;;;;;-4.29;100.00;99290.34;5117059;28;20134;-90
2023/01/18 07:07:10;;;;;;;26.00;11.50;;;;;;;-4.34;100.00;99282.88;5099318;28;20299;-91
2023/01/18 07:09:36;;;;;;;18.77;9.10;;;;;;;-4.28;100.00;99305.22;5116690;28;20031;-90
2023/01/18 07:12:02;;;;;;;21.65;11.40;;;;;;;-4.29;100.00;99293.81;5116828;28;20077;-91
2023/01/18 07:14:29;;;;;;;22.30;10.67;;;;;;;-4.30;100.00;99294.81;5098779;28;20035;-91
2023/01/18 07:16:57;;;;;;;22.00;10.15;;;;;;;-4.28;100.00;99287.53;5098374;28;20035;-91
2023/01/18 07:19:25;;;;;;;21.92;10.07;;;;;;;-4.30;100.00;99294.81;5082323;28;20047;-92
2023/01/18 07:21:53;;;;;;;27.65;11.45;;;;;;;-4.30;100.00;99294.81;5084709;28;20464;-91
2023/01/18 07:24:19;;;;;;;22.07;10.70;;;;;;;-4.30;100.00;99299.28;5103444;28;20043;-91
2023/01/18 07:26:49;;;;;;;28.60;11.35;;;;;;;-4.32;100.00;99302.09;5106958;28;20053;-93
2023/01/18 07:29:20;;;;;;;24.50;9.97;;;;;;;-4.31;100.00;99302.91;5128348;28;20052;-92
2023/01/18 07:31:46;;;;;;;26.08;9.85;;;;;;;-4.24;100.00;99303.94;5124496;28;20268;-92
2023/01/18 07:34:12;;;;;;;25.45;11.02;;;;;;;-4.23;100.00;99302.97;5109043;28;20051;-92
2023/01/18 07:36:45;;;;;;;24.57;10.43;;;;;;;-4.19;100.00;99312.25;5135947;28;20372;-91
2023/01/18 07:39:13;;;;;;;21.02;9.23;;;;;;;-4.11;100.00;99322.88;5116921;28;20262;-91
2023/01/18 07:41:41;;;;;;;23.13;10.65;;;;;;;-4.11;100.00;99322.88;5110820;28;20421;-92
2023/01/18 07:44:09;;;;;;;22.98;11.85;;;;;;;-4.18;100.00;99311.25;5105776;28;20037;-91
2023/01/18 07:46:43;;;;;;;24.48;10.07;;;;;;;-4.13;100.00;99321.41;5099878;28;20067;-92
2023/01/18 07:49:09;;;;;;;22.33;9.17;;;;;;;-4.11;100.00;99327.34;5098839;28;20530;-91
2023/01/18 07:51:34;;;;;;;20.83;10.10;;;;;;;-4.13;100.00;99324.88;5097530;28;20297;-91
2023/01/18 07:54:02;;;;;;;20.43;9.83;;;;;;;-4.00;100.00;99335.03;5087929;28;20130;-90
2023/01/18 07:56:31;;;;;;;25.05;10.07;;;;;;;-3.97;100.00;99331.22;5060518;28;20051;-89
2023/01/18 07:59:16;;;;;;;20.38;10.63;;;;;;;-4.02;100.00;99337.00;5077441;28;20475;-92
2023/01/18 08:01:50;;;;;;;18.27;8.20;;;;;;;-4.01;100.00;99335.19;5061198;28;20036;-91
2023/01/18 08:04:15;;;;;;;20.20;9.82;;;;;;;-3.96;100.00;99343.50;5077175;28;20293;-91
2023/01/18 08:06:41;;;;;;;19.13;8.82;;;;;;;-3.99;100.00;99341.16;5077938;28;20028;-92
2023/01/18 08:09:09;;;;;;;20.23;11.27;;;;;;;-3.94;100.00;99354.75;5077652;28;20423;-93
2023/01/18 08:11:37;;;;;;;18.45;8.88;;;;;;;-4.00;100.00;99355.38;5077165;28;20031;-92
2023/01/18 08:14:05;;;;;;;21.90;10.57;;;;;;;-3.94;100.00;99352.94;5044445;28;20044;-92
2023/01/18 08:16:33;;;;;;;21.23;10.13;;;;;;;-3.94;100.00;99360.03;5077603;28;20371;-92
2023/01/18 08:19:03;;;;;;;25.23;10.43;;;;;;;-3.92;100.00;99358.09;5078341;28;20420;-93
2023/01/18 08:21:30;;;;;;;18.60;9.13;;;;;;;-3.88;100.00;99356.78;5077251;28;20115;-92
2023/01/18 08:23:58;;;;;;;23.08;10.45;;;;;;;-3.85;100.00;99361.78;5096642;28;20118;-92
2023/01/18 08:26:26;;;;;;;29.13;11.30;;;;;;;-3.85;100.00;99360.91;5096821;28;20032;-93
2023/01/18 08:32:08;;;;;;;21.90;10.15;;;;;;;-3.72;100.00;99354.19;5084552;28;20036;-92
2023/01/18 08:34:37;;;;;;;25.10;10.40;;;;;;;-3.71;100.00;99355.84;5078845;28;20031;-93
2023/01/18 08:37:07;;;;;;;23.77;10.18;;;;;;;-3.61;100.00;99376.13;5095836;28;20089;-93
2023/01/18 08:39:35;;;;;;;16.20;7.53;;;;;;;-3.59;100.00;99374.97;5077288;28;20092;-92
2023/01/18 08:42:03;;;;;;;23.77;10.32;;;;;;;-3.59;100.00;99374.13;5076942;28;20028;-92
2023/01/18 08:44:31;;;;;;;25.83;10.55;;;;;;;-3.56;100.00;99382.59;5081137;28;20034;-92
2023/01/18 08:46:56;;;;;;;23.00;9.97;;;;;;;-3.54;100.00;99385.09;5078606;28;20028;-92
2023/01/18 08:49:22;;;;;;;26.77;10.88;;;;;;;-3.54;100.00;99388.56;5080336;28;20327;-92
2023/01/18 08:51:53;;;;;;;21.23;9.73;;;;;;;-3.48;100.00;99399.50;5101160;28;20052;-91
2023/01/18 08:54:19;;;;;;;20.38;10.20;;;;;;;-3.45;100.00;99397.38;5113585;28;20058;-93
2023/01/18 08:56:44;;;;;;;19.53;9.63;;;;;;;-3.41;100.00;99404.03;5103421;28;20039;-91
2023/01/18 08:59:14;;;;;;;20.27;9.32;;;;;;;-3.28;100.00;99411.50;5100685;28;20020;-92
2023/01/18 09:01:40;;;;;;;18.83;9.90;;;;;;;-3.31;100.00;99398.56;5084141;28;20036;-92
2023/01/18 09:04:07;;;;;;;19.65;8.93;;;;;;;-3.19;100.00;99407.06;5105470;28;20421;-92
2023/01/18 09:06:33;;;;;;;17.53;10.10;;;;;;;-3.19;100.00;99405.25;5107145;28;20023;-92
2023/01/18 09:09:04;;;;;;;21.17;10.10;;;;;;;-3.14;100.00;99406.56;5100993;28;20373;-92
2023/01/18 09:11:29;;;;;;;19.60;9.48;;;;;;;-3.02;100.00;99415.91;5081597;28;20032;-92
2023/01/18 09:13:57;;;;;;;21.60;9.80;;;;;;;-3.06;100.00;99404.78;5106246;28;20038;-93
2023/01/18 09:16:27;;;;;;;19.98;9.05;;;;;;;-3.02;100.00;99408.78;5109395;28;20099;-93
2023/01/18 09:18:57;;;;;;;22.05;9.43;;;;;;;-2.95;100.00;99416.94;5133063;28;20031;-93
2023/01/18 09:21:30;;;;;;;20.20;9.47;;;;;;;-2.86;100.00;99423.09;5103883;28;20471;-92
2023/01/18 09:23:58;;;;;;;16.45;8.25;;;;;;;-2.75;100.00;99435.19;5098682;28;20031;-92
2023/01/18 09:26:34;;;;;;;;;;;;;;;;;;;;;
2023/01/18 09:29:00;;;;;;;16.55;8.68;;;;;;;-2.62;100.00;99437.38;5116586;28;20097;-93
2023/01/18 09:31:29;;;;;;;19.63;8.47;;;;;;;-2.60;100.00;99441.50;5097007;28;20118;-92
2023/01/18 09:34:00;;;;;;;14.32;8.20;;;;;;;-2.49;100.00;99433.22;5096771;28;20472;-92
2023/01/18 09:36:29;;;;;;;18.92;9.90;;;;;;;-2.45;100.00;99435.56;5097014;28;20036;-93
2023/01/18 09:39:00;;;;;;;17.07;7.93;;;;;;;-2.40;100.00;99444.69;5096170;28;20039;-92
2023/01/18 09:41:51;;;;;;;15.48;7.60;;;;;;;-2.28;100.00;99452.34;5095938;28;20280;-92
2023/01/18 09:44:34;;;;;;;20.17;9.25;;;;;;;-2.18;100.00;99456.47;5114648;28;20102;-92
2023/01/18 09:47:24;;;;;;;;;;;;;;;;;;;;;
2023/01/18 09:49:58;;;;;;;14.57;7.85;;;;;;;-2.06;100.00;99461.47;5114800;28;20019;-92
2023/01/18 09:52:49;;;;;;;16.77;8.77;;;;;;;-1.94;100.00;99470.75;5096388;28;20020;-93
2023/01/18 10:01:52;;;;;;;17.70;8.63;;;;;;;-1.68;100.00;99465.22;5093983;28;20046;-93
2023/01/18 10:04:41;;;;;;;20.50;8.90;;;;;;;-1.54;100.00;99465.50;5075848;28;20028;-93
2023/01/18 10:07:15;;;;;;;18.10;8.27;;;;;;;-1.42;100.00;99472.13;5075787;28;20040;-93
2023/01/18 10:09:48;;;;;;;17.55;8.82;;;;;;;-1.38;100.00;99468.13;5078161;28;20369;-92
2023/01/18 10:12:31;;;;;;;19.38;9.65;;;;;;;-1.22;100.00;99483.19;5097421;28;20031;-92
2023/01/18 10:15:20;;;;;;;16.10;8.65;;;;;;;-1.14;100.00;99480.50;5080482;28;20042;-91
2023/01/18 10:17:48;;;;;;;22.90;8.68;;;;;;;-1.10;100.00;99486.31;5079480;28;20036;-91
2023/01/18 10:20:16;;;;;;;15.60;8.40;;;;;;;-1.00;100.00;99480.78;5079556;28;20379;-91
2023/01/18 10:22:56;;;;;;;11.82;6.75;;;;;;;-0.86;100.00;99482.69;5079860;28;20298;-91
2023/01/18 10:25:43;;;;;;;15.68;7.00;;;;;;;-0.72;100.00;99491.78;5079154;28;20141;-92
2023/01/18 10:28:28;;;;;;;13.73;7.38;;;;;;;-0.63;100.00;99487.25;5079489;28;20028;-92
2023/01/18 10:31:10;;;;;;;15.82;8.10;;;;;;;-0.57;100.00;99489.19;5079600;28;20060;-92
2023/01/18 10:33:48;;;;;;;17.30;7.90;;;;;;;-0.58;100.00;99479.53;5097951;28;20066;-91
2023/01/18 10:36:19;;;;;;;12.18;7.78;;;;;;;-0.43;100.00;99493.78;5079736;28;20310;-92
2023/01/18 10:38:49;;;;;;;16.48;8.80;;;;;;;-0.40;100.00;99490.75;5079756;28;20038;-92
2023/01/18 10:41:24;;;;;;;15.77;8.55;;;;;;;-0.36;100.00;99489.38;5097766;28;20043;-92
2023/01/18 10:43:53;;;;;;;15.20;7.35;;;;;;;-0.28;100.00;99487.66;5099020;28;20024;-93
2023/01/18 10:46:19;;;;;;;12.90;7.27;;;;;;;-0.23;100.00;99474.63;5095986;28;20167;-93
2023/01/18 10:48:50;;;;;;;17.92;8.25;;;;;;;-0.20;100.00;99479.59;5094468;28;20787;-93
2023/01/18 10:51:28;;;;;;;16.75;8.15;;;;;;;-0.01;100.00;99487.09;5088613;28;20027;-92
2023/01/18 10:53:58;;;;;;;19.10;8.55;;;;;;;-0.08;100.00;99472.81;5090969;28;20052;-93
2023/01/18 10:56:45;;;;;;;16.30;7.60;;;;;;;-0.01;100.00;99480.94;5111721;28;20036;-93
2023/01/18 10:59:40;;;;;;;15.10;7.43;;;;;;;0.14;100.00;99489.81;5107488;28;20285;-93
2023/01/18 11:02:33;;;;;;;;;;;;;;;;;;;;;
2023/01/18 11:05:26;;;;;;;10.82;5.78;;;;;;;0.29;100.00;99489.00;5117681;28;20038;-96
2023/01/18 11:08:19;;;;;;;10.60;7.35;;;;;;;0.39;100.00;99494.91;5076845;28;20056;-95
2023/01/18 11:10:59;;;;;;;13.33;7.00;;;;;;;0.49;100.00;99491.97;5099995;28;20031;-94
2023/01/18 11:13:56;;;;;;;13.93;6.93;;;;;;;0.62;100.00;99496.66;5099734;28;20370;-94
2023/01/18 11:16:41;;;;;;;;;;;;;;;;;;;;;
2023/01/18 11:19:22;;;;;;;10.70;6.82;;;;;;;0.77;100.00;99485.97;5086536;28;20062;-94
2023/01/18 11:21:58;;;;;;;15.15;7.55;;;;;;;0.90;100.00;99496.00;5116534;28;20504;-94
2023/01/18 11:24:42;;;;;;;14.93;7.10;;;;;;;0.99;100.00;99495.75;5098200;28;20171;-93
2023/01/18 11:27:35;;;;;;;15.65;7.55;;;;;;;1.16;99.40;99499.00;5098807;28;20273;-93
2023/01/18 11:30:12;;;;;;;17.98;7.68;;;;;;;1.27;98.43;99496.88;5098118;28;20107;-96
2023/01/18 11:32:38;;;;;;;14.32;6.85;;;;;;;1.39;97.54;99482.03;5099030;28;20036;-96
2023/01/18 11:35:28;;;;;;;11.98;5.70;;;;;;;1.58;98.08;99492.09;5098723;28;20023;-96
2023/01/18 11:38:01;;;;;;;12.23;6.67;;;;;;;1.77;95.63;99488.97;5116676;28;20046;-94
2023/01/18 11:40:34;;;;;;;14.05;6.78;;;;;;;1.91;95.35;99485.41;5099498;28;20364;-96
2023/01/18 11:43:21;;;;;;;11.80;6.25;;;;;;;2.13;94.41;99483.53;5099207;28;20050;-96
2023/01/18 11:46:00;;;;;;;11.02;6.53;;;;;;;2.35;94.22;99491.50;5116447;28;20031;-96
2023/01/18 11:49:00;;;;;;;10.52;5.63;;;;;;;2.53;90.43;99478.47;5100720;28;20483;-96
2023/01/18 11:55:30;;;;;;;15.52;5.53;;;;;;;3.38;90.12;99475.56;5119980;28;20099;-96
2023/01/18 11:58:27;;;;;;;;;;;;;;;;;;;;;
2023/01/18 12:01:23;;;;;;;;;;;;;;;;;;;;;
2023/01/18 12:17:29;;;;;;;;;;;;;;;;;;;;;
2023/01/18 12:23:00;;;;;;;11.82;4.53;;;;;;;14.75;51.03;99487.50;5275709;23;20058;-96
2023/01/18 12:36:21;;;;;;;8.27;4.07;;;;;;;15.90;43.71;99473.06;5015423;28;20418;-96
2023/01/18 12:39:10;;;;;;;;;;;;;;;;;;;;;
2023/01/18 12:42:14;;;;;;;;;;;;;;;;;;;;;
2023/01/18 12:57:59;;;;;;;5.03;3.47;;;;;;;16.97;34.83;99484.97;5054191;22;20057;-96
2023/01/18 13:01:18;;;;;;;;;;;;;;;;;;;;;
2023/01/18 13:06:22;;;;;;;5.63;3.53;;;;;;;19.72;30.28;99477.41;5499443;22;20065;-96
2023/01/18 13:09:19;;;;;;;4.18;3.28;;;;;;;20.39;29.33;99479.41;5037627;28;20091;-96
2023/01/18 13:12:02;;;;;;;4.50;3.08;;;;;;;19.66;30.22;99490.47;5020658;28;20075;-95
2023/01/18 13:15:18;;;;;;;7.00;3.72;;;;;;;18.70;32.16;99476.41;5042601;28;20053;-96
2023/01/18 13:18:09;;;;;;;5.07;3.03;;;;;;;18.27;32.43;99486.81;5013351;28;20079;-96
2023/01/18 13:21:23;;;;;;;6.40;3.05;;;;;;;19.08;31.32;99491.97;5023263;28;20030;-96
2023/01/18 13:24:26;;;;;;;7.80;3.70;;;;;;;19.74;31.23;99500.75;5018496;28;20048;-95
2023/01/18 13:27:11;;;;;;;4.70;3.58;;;;;;;19.02;31.68;99499.47;5015588;28;20124;-94
2023/01/18 13:33:39;;;;;;;4.07;3.13;;;;;;;19.13;28.92;99497.34;4946919;29;20050;-96
2023/01/18 13:36:24;;;;;;;4.57;3.17;;;;;;;18.14;30.97;99491.13;4929233;29;20042;-96
2023/01/18 13:39:12;;;;;;;5.75;3.38;;;;;;;17.38;31.44;99510.25;4989561;28;20454;-94
2023/01/18 13:41:40;;;;;;;6.32;2.92;;;;;;;17.66;30.69;99495.63;4996967;28;20121;-93